sensor_id;sensor_type;location;lat;lon;timestamp;temperature;humidity
8105;DHT22;4095;48.942;9.104;2023-04-12T00:01:29;11.60;96.80
8105;DHT22;4095;48.942;9.104;2023-04-12T00:03:54;11.60;96.80
8105;DHT22;4095;48.942;9.104;2023-04-12T00:06:20;11.60;96.80
8105;DHT22;4095;48.942;9.104;2023-04-12T00:08:52;11.60;96.80
8105;DHT22;4095;48.942;9.104;2023-04-12T00:11:17;11.60;96.80
8105;DHT22;4095;48.942;9.104;2023-04-12T00:13:43;11.60;96.90
8105;DHT22;4095;48.942;9.104;2023-04-12T00:16:09;11.60;97.00
8105;DHT22;4095;48.942;9.104;2023-04-12T00:18:34;11.60;97.10
8105;DHT22;4095;48.942;9.104;2023-04-12T00:21:00;11.60;97.30
8105;DHT22;4095;48.942;9.104;2023-04-12T00:23:25;11.60;97.40
8105;DHT22;4095;48.942;9.104;2023-04-12T00:25:51;11.60;97.60
8105;DHT22;4095;48.942;9.104;2023-04-12T00:28:17;11.60;96.60
8105;DHT22;4095;48.942;9.104;2023-04-12T00:30:43;11.60;96.20
8105;DHT22;4095;48.942;9.104;2023-04-12T00:33:10;11.60;95.80
8105;DHT22;4095;48.942;9.104;2023-04-12T00:35:35;11.60;95.40
8105;DHT22;4095;48.942;9.104;2023-04-12T00:38:01;11.60;95.80
8105;DHT22;4095;48.942;9.104;2023-04-12T00:40:28;11.60;96.40
8105;DHT22;4095;48.942;9.104;2023-04-12T00:42:53;11.50;96.30
8105;DHT22;4095;48.942;9.104;2023-04-12T00:45:19;11.50;96.70
8105;DHT22;4095;48.942;9.104;2023-04-12T00:47:45;11.40;96.90
8105;DHT22;4095;48.942;9.104;2023-04-12T00:50:11;11.40;97.50
8105;DHT22;4095;48.942;9.104;2023-04-12T00:52:38;11.30;97.80
8105;DHT22;4095;48.942;9.104;2023-04-12T00:55:04;11.30;98.40
8105;DHT22;4095;48.942;9.104;2023-04-12T00:57:34;11.30;99.00
8105;DHT22;4095;48.942;9.104;2023-04-12T01:00:02;11.20;99.20
8105;DHT22;4095;48.942;9.104;2023-04-12T01:02:29;11.20;99.30
8105;DHT22;4095;48.942;9.104;2023-04-12T01:04:55;11.10;99.50
8105;DHT22;4095;48.942;9.104;2023-04-12T01:08:04;11.10;99.90
8105;DHT22;4095;48.942;9.104;2023-04-12T01:13:26;11.00;99.90
8105;DHT22;4095;48.942;9.104;2023-04-12T01:15:59;11.00;99.90
8105;DHT22;4095;48.942;9.104;2023-04-12T01:18:29;10.90;99.90
8105;DHT22;4095;48.942;9.104;2023-04-12T01:21:04;11.00;99.90
8105;DHT22;4095;48.942;9.104;2023-04-12T01:26:46;10.90;99.90
8105;DHT22;4095;48.942;9.104;2023-04-12T01:29:14;10.90;99.90
8105;DHT22;4095;48.942;9.104;2023-04-12T01:31:53;10.90;99.90
8105;DHT22;4095;48.942;9.104;2023-04-12T01:34:21;10.80;99.90
8105;DHT22;4095;48.942;9.104;2023-04-12T01:36:47;10.80;99.90
8105;DHT22;4095;48.942;9.104;2023-04-12T01:39:13;10.80;99.90
8105;DHT22;4095;48.942;9.104;2023-04-12T01:41:40;10.80;99.90
8105;DHT22;4095;48.942;9.104;2023-04-12T01:44:06;10.90;99.90
8105;DHT22;4095;48.942;9.104;2023-04-12T01:46:32;10.90;99.90
8105;DHT22;4095;48.942;9.104;2023-04-12T01:48:59;10.80;99.90
8105;DHT22;4095;48.942;9.104;2023-04-12T01:51:51;10.80;99.90
8105;DHT22;4095;48.942;9.104;2023-04-12T01:54:31;11.00;99.90
8105;DHT22;4095;48.942;9.104;2023-04-12T01:57:00;11.00;99.90
8105;DHT22;4095;48.942;9.104;2023-04-12T01:59:30;11.00;99.90
8105;DHT22;4095;48.942;9.104;2023-04-12T02:01:57;11.00;99.90
8105;DHT22;4095;48.942;9.104;2023-04-12T02:04:23;11.00;99.90
8105;DHT22;4095;48.942;9.104;2023-04-12T02:06:52;11.00;99.90
8105;DHT22;4095;48.942;9.104;2023-04-12T02:09:18;10.90;99.90
8105;DHT22;4095;48.942;9.104;2023-04-12T02:11:48;10.90;99.90
8105;DHT22;4095;48.942;9.104;2023-04-12T02:14:14;10.90;99.90
8105;DHT22;4095;48.942;9.104;2023-04-12T02:16:40;10.90;99.90
8105;DHT22;4095;48.942;9.104;2023-04-12T02:19:09;10.90;99.90
8105;DHT22;4095;48.942;9.104;2023-04-12T02:21:45;10.90;99.90
8105;DHT22;4095;48.942;9.104;2023-04-12T02:24:11;10.90;99.90
8105;DHT22;4095;48.942;9.104;2023-04-12T02:26:37;10.80;99.90
8105;DHT22;4095;48.942;9.104;2023-04-12T02:29:04;10.80;99.90
8105;DHT22;4095;48.942;9.104;2023-04-12T02:31:34;10.70;99.90
8105;DHT22;4095;48.942;9.104;2023-04-12T02:34:03;10.80;99.90
8105;DHT22;4095;48.942;9.104;2023-04-12T02:36:29;10.70;99.90
8105;DHT22;4095;48.942;9.104;2023-04-12T02:38:55;10.80;99.90
8105;DHT22;4095;48.942;9.104;2023-04-12T02:41:23;10.80;99.90
8105;DHT22;4095;48.942;9.104;2023-04-12T02:43:49;10.70;99.90
8105;DHT22;4095;48.942;9.104;2023-04-12T02:46:18;10.70;99.90
8105;DHT22;4095;48.942;9.104;2023-04-12T02:48:47;10.70;99.90
8105;DHT22;4095;48.942;9.104;2023-04-12T02:51:13;10.70;99.90
8105;DHT22;4095;48.942;9.104;2023-04-12T02:53:39;10.70;99.90
8105;DHT22;4095;48.942;9.104;2023-04-12T02:56:05;10.70;99.90
8105;DHT22;4095;48.942;9.104;2023-04-12T02:58:31;10.70;99.90
8105;DHT22;4095;48.942;9.104;2023-04-12T03:00:58;10.70;99.90
8105;DHT22;4095;48.942;9.104;2023-04-12T03:03:25;10.70;99.90
8105;DHT22;4095;48.942;9.104;2023-04-12T03:05:54;10.80;99.90
8105;DHT22;4095;48.942;9.104;2023-04-12T03:08:20;10.80;99.90
8105;DHT22;4095;48.942;9.104;2023-04-12T03:10:46;10.80;99.90
8105;DHT22;4095;48.942;9.104;2023-04-12T03:13:11;10.80;99.90
8105;DHT22;4095;48.942;9.104;2023-04-12T03:15:38;10.90;99.90
8105;DHT22;4095;48.942;9.104;2023-04-12T03:18:04;10.90;99.90
8105;DHT22;4095;48.942;9.104;2023-04-12T03:20:30;10.90;99.90
8105;DHT22;4095;48.942;9.104;2023-04-12T03:22:55;10.90;99.90
8105;DHT22;4095;48.942;9.104;2023-04-12T03:25:21;10.90;99.90
8105;DHT22;4095;48.942;9.104;2023-04-12T03:27:46;10.90;99.90
8105;DHT22;4095;48.942;9.104;2023-04-12T03:30:12;10.90;99.90
8105;DHT22;4095;48.942;9.104;2023-04-12T03:32:39;11.00;99.90
8105;DHT22;4095;48.942;9.104;2023-04-12T03:35:06;10.90;99.90
8105;DHT22;4095;48.942;9.104;2023-04-12T03:37:33;10.90;99.90
8105;DHT22;4095;48.942;9.104;2023-04-12T03:39:58;11.00;99.90
8105;DHT22;4095;48.942;9.104;2023-04-12T03:42:24;11.00;99.90
8105;DHT22;4095;48.942;9.104;2023-04-12T03:44:51;10.90;99.90
8105;DHT22;4095;48.942;9.104;2023-04-12T03:47:17;11.00;99.90
8105;DHT22;4095;48.942;9.104;2023-04-12T03:49:43;11.00;99.90
8105;DHT22;4095;48.942;9.104;2023-04-12T03:52:09;10.90;99.90
8105;DHT22;4095;48.942;9.104;2023-04-12T03:54:35;10.90;99.90
8105;DHT22;4095;48.942;9.104;2023-04-12T03:57:00;10.90;99.90
8105;DHT22;4095;48.942;9.104;2023-04-12T03:59:27;10.90;99.90
8105;DHT22;4095;48.942;9.104;2023-04-12T04:01:53;10.90;99.90
8105;DHT22;4095;48.942;9.104;2023-04-12T04:04:19;11.00;99.90
8105;DHT22;4095;48.942;9.104;2023-04-12T04:06:45;10.90;99.90
8105;DHT22;4095;48.942;9.104;2023-04-12T04:09:11;10.90;99.90
8105;DHT22;4095;48.942;9.104;2023-04-12T04:11:37;11.00;99.90
8105;DHT22;4095;48.942;9.104;2023-04-12T04:14:02;11.00;99.90
8105;DHT22;4095;48.942;9.104;2023-04-12T04:16:28;11.00;99.90
8105;DHT22;4095;48.942;9.104;2023-04-12T04:18:55;11.00;99.90
8105;DHT22;4095;48.942;9.104;2023-04-12T04:21:20;11.00;99.90
8105;DHT22;4095;48.942;9.104;2023-04-12T04:23:47;11.10;99.90
8105;DHT22;4095;48.942;9.104;2023-04-12T04:26:13;11.00;99.90
8105;DHT22;4095;48.942;9.104;2023-04-12T04:28:41;11.00;99.90
8105;DHT22;4095;48.942;9.104;2023-04-12T04:31:10;11.00;99.90
8105;DHT22;4095;48.942;9.104;2023-04-12T04:33:36;11.00;99.90
8105;DHT22;4095;48.942;9.104;2023-04-12T04:36:04;11.10;99.90
8105;DHT22;4095;48.942;9.104;2023-04-12T04:38:30;11.00;99.90
8105;DHT22;4095;48.942;9.104;2023-04-12T04:40:57;11.10;99.90
8105;DHT22;4095;48.942;9.104;2023-04-12T04:43:24;11.10;99.90
8105;DHT22;4095;48.942;9.104;2023-04-12T04:45:53;11.00;99.90
8105;DHT22;4095;48.942;9.104;2023-04-12T04:48:20;11.00;99.90
8105;DHT22;4095;48.942;9.104;2023-04-12T04:50:45;11.00;99.90
8105;DHT22;4095;48.942;9.104;2023-04-12T04:53:11;11.00;99.90
8105;DHT22;4095;48.942;9.104;2023-04-12T04:55:37;10.90;99.90
8105;DHT22;4095;48.942;9.104;2023-04-12T04:58:04;10.90;99.90
8105;DHT22;4095;48.942;9.104;2023-04-12T05:00:30;10.90;99.90
8105;DHT22;4095;48.942;9.104;2023-04-12T05:02:56;10.80;99.90
8105;DHT22;4095;48.942;9.104;2023-04-12T05:05:21;10.80;99.90
8105;DHT22;4095;48.942;9.104;2023-04-12T05:07:47;10.80;99.90
8105;DHT22;4095;48.942;9.104;2023-04-12T05:10:14;10.90;99.90
8105;DHT22;4095;48.942;9.104;2023-04-12T05:12:39;10.90;99.90
8105;DHT22;4095;48.942;9.104;2023-04-12T05:15:05;10.80;99.90
8105;DHT22;4095;48.942;9.104;2023-04-12T05:17:31;10.80;99.90
8105;DHT22;4095;48.942;9.104;2023-04-12T05:19:59;10.80;99.90
8105;DHT22;4095;48.942;9.104;2023-04-12T05:22:24;10.80;99.90
8105;DHT22;4095;48.942;9.104;2023-04-12T05:24:50;10.90;99.90
8105;DHT22;4095;48.942;9.104;2023-04-12T05:27:16;10.90;99.90
8105;DHT22;4095;48.942;9.104;2023-04-12T05:29:42;10.90;99.90
8105;DHT22;4095;48.942;9.104;2023-04-12T05:32:08;10.90;99.90
8105;DHT22;4095;48.942;9.104;2023-04-12T05:34:33;10.90;99.90
8105;DHT22;4095;48.942;9.104;2023-04-12T05:36:59;10.90;99.90
8105;DHT22;4095;48.942;9.104;2023-04-12T05:39:26;10.90;99.90
8105;DHT22;4095;48.942;9.104;2023-04-12T05:41:52;10.90;99.90
8105;DHT22;4095;48.942;9.104;2023-04-12T05:44:18;10.90;99.90
8105;DHT22;4095;48.942;9.104;2023-04-12T05:46:43;10.90;99.90
8105;DHT22;4095;48.942;9.104;2023-04-12T05:49:09;10.90;99.90
8105;DHT22;4095;48.942;9.104;2023-04-12T05:51:35;10.90;99.90
8105;DHT22;4095;48.942;9.104;2023-04-12T05:54:00;10.90;99.90
8105;DHT22;4095;48.942;9.104;2023-04-12T05:56:28;10.90;99.90
8105;DHT22;4095;48.942;9.104;2023-04-12T05:58:53;10.90;99.90
8105;DHT22;4095;48.942;9.104;2023-04-12T06:01:19;11.00;99.90
8105;DHT22;4095;48.942;9.104;2023-04-12T06:03:46;11.00;99.90
8105;DHT22;4095;48.942;9.104;2023-04-12T06:06:12;11.10;99.90
8105;DHT22;4095;48.942;9.104;2023-04-12T06:08:38;11.00;99.90
8105;DHT22;4095;48.942;9.104;2023-04-12T06:11:04;10.90;99.90
8105;DHT22;4095;48.942;9.104;2023-04-12T06:13:30;10.90;99.90
8105;DHT22;4095;48.942;9.104;2023-04-12T06:15:55;10.90;99.90
8105;DHT22;4095;48.942;9.104;2023-04-12T06:18:21;11.00;99.90
8105;DHT22;4095;48.942;9.104;2023-04-12T06:20:46;11.00;99.90
8105;DHT22;4095;48.942;9.104;2023-04-12T06:23:12;10.90;99.90
8105;DHT22;4095;48.942;9.104;2023-04-12T06:25:38;10.90;99.90
8105;DHT22;4095;48.942;9.104;2023-04-12T06:28:03;11.00;99.90
8105;DHT22;4095;48.942;9.104;2023-04-12T06:30:29;11.00;99.90
8105;DHT22;4095;48.942;9.104;2023-04-12T06:32:55;11.00;99.90
8105;DHT22;4095;48.942;9.104;2023-04-12T06:35:21;11.00;99.90
8105;DHT22;4095;48.942;9.104;2023-04-12T06:37:47;11.00;99.90
8105;DHT22;4095;48.942;9.104;2023-04-12T06:40:12;11.00;99.90
8105;DHT22;4095;48.942;9.104;2023-04-12T06:42:38;11.00;99.90
8105;DHT22;4095;48.942;9.104;2023-04-12T06:45:04;11.10;99.90
8105;DHT22;4095;48.942;9.104;2023-04-12T06:47:31;11.00;99.90
8105;DHT22;4095;48.942;9.104;2023-04-12T06:49:56;11.00;99.90
8105;DHT22;4095;48.942;9.104;2023-04-12T06:52:26;11.10;99.90
8105;DHT22;4095;48.942;9.104;2023-04-12T06:54:52;11.10;99.90
8105;DHT22;4095;48.942;9.104;2023-04-12T06:57:18;11.20;99.90
8105;DHT22;4095;48.942;9.104;2023-04-12T06:59:43;11.20;99.90
8105;DHT22;4095;48.942;9.104;2023-04-12T07:02:09;11.30;99.90
8105;DHT22;4095;48.942;9.104;2023-04-12T07:04:34;11.30;99.90
8105;DHT22;4095;48.942;9.104;2023-04-12T07:07:00;11.30;99.90
8105;DHT22;4095;48.942;9.104;2023-04-12T07:09:26;11.40;99.90
8105;DHT22;4095;48.942;9.104;2023-04-12T07:11:51;11.40;99.90
8105;DHT22;4095;48.942;9.104;2023-04-12T07:14:17;11.50;99.90
8105;DHT22;4095;48.942;9.104;2023-04-12T07:16:43;11.50;99.90
8105;DHT22;4095;48.942;9.104;2023-04-12T07:19:08;11.60;99.90
8105;DHT22;4095;48.942;9.104;2023-04-12T07:21:34;11.70;99.90
8105;DHT22;4095;48.942;9.104;2023-04-12T07:24:00;11.70;99.90
8105;DHT22;4095;48.942;9.104;2023-04-12T07:26:26;11.70;99.90
8105;DHT22;4095;48.942;9.104;2023-04-12T07:28:51;11.70;99.90
8105;DHT22;4095;48.942;9.104;2023-04-12T07:31:17;11.60;99.90
8105;DHT22;4095;48.942;9.104;2023-04-12T07:33:43;11.70;99.90
8105;DHT22;4095;48.942;9.104;2023-04-12T07:36:09;11.70;99.90
8105;DHT22;4095;48.942;9.104;2023-04-12T07:38:34;11.70;99.90
8105;DHT22;4095;48.942;9.104;2023-04-12T07:41:00;11.80;99.90
8105;DHT22;4095;48.942;9.104;2023-04-12T07:43:26;11.80;99.90
8105;DHT22;4095;48.942;9.104;2023-04-12T07:45:53;11.80;99.90
8105;DHT22;4095;48.942;9.104;2023-04-12T07:48:20;11.90;99.90
8105;DHT22;4095;48.942;9.104;2023-04-12T07:50:46;11.90;99.90
8105;DHT22;4095;48.942;9.104;2023-04-12T07:53:25;11.90;99.90
8105;DHT22;4095;48.942;9.104;2023-04-12T07:55:52;12.00;99.90
8105;DHT22;4095;48.942;9.104;2023-04-12T07:58:19;12.00;99.90
8105;DHT22;4095;48.942;9.104;2023-04-12T08:00:46;12.00;99.90
8105;DHT22;4095;48.942;9.104;2023-04-12T08:03:16;12.10;99.90
8105;DHT22;4095;48.942;9.104;2023-04-12T08:05:42;12.20;99.90
8105;DHT22;4095;48.942;9.104;2023-04-12T08:08:09;12.20;99.90
8105;DHT22;4095;48.942;9.104;2023-04-12T08:10:35;12.30;99.90
8105;DHT22;4095;48.942;9.104;2023-04-12T08:13:02;12.30;99.90
8105;DHT22;4095;48.942;9.104;2023-04-12T08:15:28;12.40;99.90
8105;DHT22;4095;48.942;9.104;2023-04-12T08:17:53;12.40;99.90
8105;DHT22;4095;48.942;9.104;2023-04-12T08:20:19;12.40;99.90
8105;DHT22;4095;48.942;9.104;2023-04-12T08:22:45;12.40;99.90
8105;DHT22;4095;48.942;9.104;2023-04-12T08:25:11;12.50;99.90
8105;DHT22;4095;48.942;9.104;2023-04-12T08:27:39;12.40;99.90
8105;DHT22;4095;48.942;9.104;2023-04-12T08:30:06;12.40;99.90
8105;DHT22;4095;48.942;9.104;2023-04-12T08:32:33;12.40;99.90
8105;DHT22;4095;48.942;9.104;2023-04-12T08:34:58;12.50;99.90
8105;DHT22;4095;48.942;9.104;2023-04-12T08:37:24;12.40;99.90
8105;DHT22;4095;48.942;9.104;2023-04-12T08:39:50;12.50;99.90
8105;DHT22;4095;48.942;9.104;2023-04-12T08:42:16;12.50;99.90
8105;DHT22;4095;48.942;9.104;2023-04-12T08:44:42;12.50;99.90
8105;DHT22;4095;48.942;9.104;2023-04-12T08:47:09;12.50;99.90
8105;DHT22;4095;48.942;9.104;2023-04-12T08:49:35;12.60;99.90
8105;DHT22;4095;48.942;9.104;2023-04-12T08:52:06;12.60;99.90
8105;DHT22;4095;48.942;9.104;2023-04-12T08:54:35;12.70;99.90
8105;DHT22;4095;48.942;9.104;2023-04-12T08:57:03;12.80;99.90
8105;DHT22;4095;48.942;9.104;2023-04-12T08:59:30;12.90;99.90
8105;DHT22;4095;48.942;9.104;2023-04-12T09:01:57;12.90;99.90
8105;DHT22;4095;48.942;9.104;2023-04-12T09:04:24;12.90;99.90
8105;DHT22;4095;48.942;9.104;2023-04-12T09:06:54;13.00;99.90
8105;DHT22;4095;48.942;9.104;2023-04-12T09:09:40;13.10;99.90
8105;DHT22;4095;48.942;9.104;2023-04-12T09:12:06;13.10;99.90
8105;DHT22;4095;48.942;9.104;2023-04-12T09:14:32;13.20;99.90
8105;DHT22;4095;48.942;9.104;2023-04-12T09:16:57;13.20;99.90
8105;DHT22;4095;48.942;9.104;2023-04-12T09:19:31;13.20;99.90
8105;DHT22;4095;48.942;9.104;2023-04-12T09:21:57;13.20;99.90
8105;DHT22;4095;48.942;9.104;2023-04-12T09:24:23;13.20;99.90
8105;DHT22;4095;48.942;9.104;2023-04-12T09:27:06;13.10;99.90
8105;DHT22;4095;48.942;9.104;2023-04-12T09:29:32;13.10;99.90
8105;DHT22;4095;48.942;9.104;2023-04-12T09:32:03;13.10;99.90
8105;DHT22;4095;48.942;9.104;2023-04-12T09:34:33;13.20;99.90
8105;DHT22;4095;48.942;9.104;2023-04-12T09:37:12;13.20;99.90
8105;DHT22;4095;48.942;9.104;2023-04-12T09:39:38;13.20;99.90
8105;DHT22;4095;48.942;9.104;2023-04-12T09:42:08;13.30;99.90
8105;DHT22;4095;48.942;9.104;2023-04-12T09:44:34;13.30;99.90
8105;DHT22;4095;48.942;9.104;2023-04-12T09:47:00;13.30;99.90
8105;DHT22;4095;48.942;9.104;2023-04-12T09:49:40;13.40;99.90
8105;DHT22;4095;48.942;9.104;2023-04-12T09:52:07;13.50;99.90
8105;DHT22;4095;48.942;9.104;2023-04-12T09:54:43;13.50;99.90
8105;DHT22;4095;48.942;9.104;2023-04-12T09:57:11;13.50;99.90
8105;DHT22;4095;48.942;9.104;2023-04-12T09:59:38;13.60;99.90
8105;DHT22;4095;48.942;9.104;2023-04-12T10:02:14;13.80;99.90
8105;DHT22;4095;48.942;9.104;2023-04-12T10:04:41;13.80;99.90
8105;DHT22;4095;48.942;9.104;2023-04-12T10:07:07;13.80;99.90
8105;DHT22;4095;48.942;9.104;2023-04-12T10:09:42;13.90;99.90
8105;DHT22;4095;48.942;9.104;2023-04-12T10:12:08;13.90;99.90
8105;DHT22;4095;48.942;9.104;2023-04-12T10:14:34;13.90;99.90
8105;DHT22;4095;48.942;9.104;2023-04-12T10:17:01;13.90;99.90
8105;DHT22;4095;48.942;9.104;2023-04-12T10:19:29;13.90;99.90
8105;DHT22;4095;48.942;9.104;2023-04-12T10:21:56;14.00;99.90
8105;DHT22;4095;48.942;9.104;2023-04-12T10:24:26;14.00;99.90
8105;DHT22;4095;48.942;9.104;2023-04-12T10:26:53;14.10;99.90
8105;DHT22;4095;48.942;9.104;2023-04-12T10:29:31;14.30;99.90
8105;DHT22;4095;48.942;9.104;2023-04-12T10:32:22;14.30;99.90
8105;DHT22;4095;48.942;9.104;2023-04-12T10:34:56;14.60;99.90
8105;DHT22;4095;48.942;9.104;2023-04-12T10:38:01;14.70;99.90
8105;DHT22;4095;48.942;9.104;2023-04-12T10:40:27;14.70;99.90
8105;DHT22;4095;48.942;9.104;2023-04-12T10:45:48;14.70;99.90
8105;DHT22;4095;48.942;9.104;2023-04-12T10:48:51;14.70;99.90
8105;DHT22;4095;48.942;9.104;2023-04-12T10:51:22;14.80;99.90
8105;DHT22;4095;48.942;9.104;2023-04-12T10:56:41;14.90;99.90
8105;DHT22;4095;48.942;9.104;2023-04-12T10:59:08;15.20;99.90
8105;DHT22;4095;48.942;9.104;2023-04-12T11:01:35;15.30;99.90
8105;DHT22;4095;48.942;9.104;2023-04-12T11:09:06;15.90;99.90
8105;DHT22;4095;48.942;9.104;2023-04-12T11:11:41;16.10;99.90
8105;DHT22;4095;48.942;9.104;2023-04-12T11:14:09;16.10;99.90
8105;DHT22;4095;48.942;9.104;2023-04-12T11:19:33;16.20;99.90
8105;DHT22;4095;48.942;9.104;2023-04-12T11:22:18;16.10;99.90
8105;DHT22;4095;48.942;9.104;2023-04-12T11:27:12;15.90;99.90
8105;DHT22;4095;48.942;9.104;2023-04-12T11:29:38;15.80;99.90
8105;DHT22;4095;48.942;9.104;2023-04-12T11:32:05;15.70;99.90
8105;DHT22;4095;48.942;9.104;2023-04-12T11:34:32;15.70;99.90
8105;DHT22;4095;48.942;9.104;2023-04-12T11:36:58;15.70;99.90
8105;DHT22;4095;48.942;9.104;2023-04-12T11:39:25;15.80;99.90
8105;DHT22;4095;48.942;9.104;2023-04-12T11:41:51;16.30;99.90
8105;DHT22;4095;48.942;9.104;2023-04-12T11:44:17;16.60;99.90
8105;DHT22;4095;48.942;9.104;2023-04-12T11:46:44;17.20;99.90
8105;DHT22;4095;48.942;9.104;2023-04-12T11:49:17;17.80;99.30
8105;DHT22;4095;48.942;9.104;2023-04-12T11:51:43;18.20;98.40
8105;DHT22;4095;48.942;9.104;2023-04-12T11:54:10;19.20;98.20
8105;DHT22;4095;48.942;9.104;2023-04-12T11:56:37;19.60;95.40
8105;DHT22;4095;48.942;9.104;2023-04-12T11:59:03;20.10;95.10
8105;DHT22;4095;48.942;9.104;2023-04-12T12:01:28;20.40;94.20
8105;DHT22;4095;48.942;9.104;2023-04-12T12:03:57;20.10;93.50
8105;DHT22;4095;48.942;9.104;2023-04-12T12:06:24;19.40;94.40
8105;DHT22;4095;48.942;9.104;2023-04-12T12:08:50;18.60;94.80
8105;DHT22;4095;48.942;9.104;2023-04-12T12:11:21;18.00;95.20
8105;DHT22;4095;48.942;9.104;2023-04-12T12:13:54;17.50;96.10
8105;DHT22;4095;48.942;9.104;2023-04-12T12:16:25;17.20;96.90
8105;DHT22;4095;48.942;9.104;2023-04-12T12:18:52;17.00;97.10
8105;DHT22;4095;48.942;9.104;2023-04-12T12:21:18;16.90;97.60
8105;DHT22;4095;48.942;9.104;2023-04-12T12:23:44;16.70;97.30
8105;DHT22;4095;48.942;9.104;2023-04-12T12:26:21;16.60;97.20
8105;DHT22;4095;48.942;9.104;2023-04-12T12:28:51;16.80;98.00
8105;DHT22;4095;48.942;9.104;2023-04-12T12:31:19;17.00;97.30
8105;DHT22;4095;48.942;9.104;2023-04-12T12:33:46;16.90;97.60
8105;DHT22;4095;48.942;9.104;2023-04-12T12:36:12;16.80;97.50
8105;DHT22;4095;48.942;9.104;2023-04-12T12:38:39;16.80;98.30
8105;DHT22;4095;48.942;9.104;2023-04-12T12:41:18;16.80;97.70
8105;DHT22;4095;48.942;9.104;2023-04-12T12:43:48;17.00;98.20
8105;DHT22;4095;48.942;9.104;2023-04-12T12:46:14;17.20;98.70
8105;DHT22;4095;48.942;9.104;2023-04-12T12:48:42;17.30;97.80
8105;DHT22;4095;48.942;9.104;2023-04-12T12:51:08;17.40;97.60
8105;DHT22;4095;48.942;9.104;2023-04-12T12:53:38;17.50;97.20
8105;DHT22;4095;48.942;9.104;2023-04-12T12:56:04;17.60;97.10
8105;DHT22;4095;48.942;9.104;2023-04-12T12:58:30;17.50;96.30
8105;DHT22;4095;48.942;9.104;2023-04-12T13:00:56;17.40;96.60
8105;DHT22;4095;48.942;9.104;2023-04-12T13:03:22;17.30;97.10
8105;DHT22;4095;48.942;9.104;2023-04-12T13:05:52;17.20;97.20
8105;DHT22;4095;48.942;9.104;2023-04-12T13:08:17;17.10;97.30
8105;DHT22;4095;48.942;9.104;2023-04-12T13:10:43;17.00;97.50
8105;DHT22;4095;48.942;9.104;2023-04-12T13:13:08;17.00;97.50
8105;DHT22;4095;48.942;9.104;2023-04-12T13:15:34;16.90;97.00
8105;DHT22;4095;48.942;9.104;2023-04-12T13:18:00;16.80;97.10
8105;DHT22;4095;48.942;9.104;2023-04-12T13:20:26;16.70;97.60
8105;DHT22;4095;48.942;9.104;2023-04-12T13:22:52;16.70;97.40
8105;DHT22;4095;48.942;9.104;2023-04-12T13:25:19;16.70;97.40
8105;DHT22;4095;48.942;9.104;2023-04-12T13:27:48;16.70;98.00
8105;DHT22;4095;48.942;9.104;2023-04-12T13:30:15;16.80;97.80
8105;DHT22;4095;48.942;9.104;2023-04-12T13:32:41;16.90;97.90
8105;DHT22;4095;48.942;9.104;2023-04-12T13:35:07;17.10;97.80
8105;DHT22;4095;48.942;9.104;2023-04-12T13:37:32;17.20;97.90
8105;DHT22;4095;48.942;9.104;2023-04-12T13:39:58;17.30;97.40
8105;DHT22;4095;48.942;9.104;2023-04-12T13:42:24;17.20;97.40
8105;DHT22;4095;48.942;9.104;2023-04-12T13:44:49;17.30;97.50
8105;DHT22;4095;48.942;9.104;2023-04-12T13:47:15;17.60;97.00
8105;DHT22;4095;48.942;9.104;2023-04-12T13:49:42;17.90;96.60
8105;DHT22;4095;48.942;9.104;2023-04-12T13:52:08;18.10;96.60
8105;DHT22;4095;48.942;9.104;2023-04-12T13:54:33;18.10;96.40
8105;DHT22;4095;48.942;9.104;2023-04-12T13:56:59;17.90;95.80
8105;DHT22;4095;48.942;9.104;2023-04-12T13:59:25;17.80;96.00
8105;DHT22;4095;48.942;9.104;2023-04-12T14:01:51;17.70;95.90
8105;DHT22;4095;48.942;9.104;2023-04-12T14:04:17;17.50;96.30
8105;DHT22;4095;48.942;9.104;2023-04-12T14:06:42;17.30;96.00
8105;DHT22;4095;48.942;9.104;2023-04-12T14:12:12;17.00;96.10
8105;DHT22;4095;48.942;9.104;2023-04-12T14:14:39;16.90;96.70
8105;DHT22;4095;48.942;9.104;2023-04-12T14:17:04;16.80;96.30
8105;DHT22;4095;48.942;9.104;2023-04-12T14:19:30;16.70;96.60
8105;DHT22;4095;48.942;9.104;2023-04-12T14:21:56;16.70;96.60
8105;DHT22;4095;48.942;9.104;2023-04-12T14:24:21;16.70;96.80
8105;DHT22;4095;48.942;9.104;2023-04-12T14:26:47;16.70;96.80
8105;DHT22;4095;48.942;9.104;2023-04-12T14:29:14;16.80;97.10
8105;DHT22;4095;48.942;9.104;2023-04-12T14:31:40;16.90;96.70
8105;DHT22;4095;48.942;9.104;2023-04-12T14:34:06;17.00;97.20
8105;DHT22;4095;48.942;9.104;2023-04-12T14:36:33;17.10;96.70
8105;DHT22;4095;48.942;9.104;2023-04-12T14:38:59;17.30;97.10
8105;DHT22;4095;48.942;9.104;2023-04-12T14:41:25;17.40;97.20
8105;DHT22;4095;48.942;9.104;2023-04-12T14:43:51;17.40;96.60
8105;DHT22;4095;48.942;9.104;2023-04-12T14:46:17;17.30;96.30
8105;DHT22;4095;48.942;9.104;2023-04-12T14:48:42;17.30;96.40
8105;DHT22;4095;48.942;9.104;2023-04-12T14:51:09;17.20;95.60
8105;DHT22;4095;48.942;9.104;2023-04-12T14:53:34;17.10;95.80
8105;DHT22;4095;48.942;9.104;2023-04-12T14:56:00;17.00;95.90
8105;DHT22;4095;48.942;9.104;2023-04-12T14:58:27;17.00;96.10
8105;DHT22;4095;48.942;9.104;2023-04-12T15:00:55;16.90;96.50
8105;DHT22;4095;48.942;9.104;2023-04-12T15:03:20;16.70;96.50
8105;DHT22;4095;48.942;9.104;2023-04-12T15:05:46;16.70;97.50
8105;DHT22;4095;48.942;9.104;2023-04-12T15:08:12;16.50;98.60
8105;DHT22;4095;48.942;9.104;2023-04-12T15:10:38;16.10;97.50
8105;DHT22;4095;48.942;9.104;2023-04-12T15:13:03;15.60;98.00
8105;DHT22;4095;48.942;9.104;2023-04-12T15:15:29;15.20;98.90
8105;DHT22;4095;48.942;9.104;2023-04-12T15:17:55;14.90;99.50
8105;DHT22;4095;48.942;9.104;2023-04-12T15:20:20;14.60;99.90
8105;DHT22;4095;48.942;9.104;2023-04-12T15:22:46;14.40;99.90
8105;DHT22;4095;48.942;9.104;2023-04-12T15:25:11;14.10;99.90
8105;DHT22;4095;48.942;9.104;2023-04-12T15:27:37;13.80;99.90
8105;DHT22;4095;48.942;9.104;2023-04-12T15:30:04;13.70;99.90
8105;DHT22;4095;48.942;9.104;2023-04-12T15:32:33;13.60;99.90
8105;DHT22;4095;48.942;9.104;2023-04-12T15:35:01;13.60;99.90
8105;DHT22;4095;48.942;9.104;2023-04-12T15:37:28;13.50;99.90
8105;DHT22;4095;48.942;9.104;2023-04-12T15:39:54;13.40;99.90
8105;DHT22;4095;48.942;9.104;2023-04-12T15:42:19;13.40;99.90
8105;DHT22;4095;48.942;9.104;2023-04-12T15:44:45;13.50;99.90
8105;DHT22;4095;48.942;9.104;2023-04-12T15:47:11;13.60;99.90
8105;DHT22;4095;48.942;9.104;2023-04-12T15:49:38;13.60;99.90
8105;DHT22;4095;48.942;9.104;2023-04-12T15:52:03;13.60;99.90
8105;DHT22;4095;48.942;9.104;2023-04-12T15:54:29;13.70;99.90
8105;DHT22;4095;48.942;9.104;2023-04-12T15:56:55;13.70;99.90
8105;DHT22;4095;48.942;9.104;2023-04-12T15:59:20;13.80;99.90
8105;DHT22;4095;48.942;9.104;2023-04-12T16:01:46;13.80;99.90
8105;DHT22;4095;48.942;9.104;2023-04-12T16:04:13;13.80;99.90
8105;DHT22;4095;48.942;9.104;2023-04-12T16:06:40;13.80;99.90
8105;DHT22;4095;48.942;9.104;2023-04-12T16:09:06;13.90;99.90
8105;DHT22;4095;48.942;9.104;2023-04-12T16:11:31;14.00;99.90
8105;DHT22;4095;48.942;9.104;2023-04-12T16:13:59;14.00;99.90
8105;DHT22;4095;48.942;9.104;2023-04-12T16:16:25;14.10;99.90
8105;DHT22;4095;48.942;9.104;2023-04-12T16:18:51;14.10;99.90
8105;DHT22;4095;48.942;9.104;2023-04-12T16:21:18;14.10;99.90
8105;DHT22;4095;48.942;9.104;2023-04-12T16:23:46;14.20;99.90
8105;DHT22;4095;48.942;9.104;2023-04-12T16:26:13;14.30;99.90
8105;DHT22;4095;48.942;9.104;2023-04-12T16:28:39;14.40;99.90